createdAt,value
2018-01-21T00:00:38.507Z,89.00
2018-01-21T00:01:43.119Z,82.50
2018-01-21T00:02:47.427Z,89.00
2018-01-21T00:03:51.840Z,87.50
2018-01-21T00:04:56.247Z,83.50
2018-01-21T00:06:00.586Z,85.00
2018-01-21T00:07:06.079Z,90.00
2018-01-21T00:08:10.675Z,86.50
2018-01-21T00:09:15.538Z,89.00
2018-01-21T00:10:22.006Z,85.50
2018-01-21T00:11:26.643Z,76.00
2018-01-21T00:12:30.896Z,89.00
2018-01-21T00:13:35.221Z,89.50
2018-01-21T00:14:39.935Z,84.00
2018-01-21T00:15:44.838Z,88.00
2018-01-21T00:16:49.153Z,78.50
2018-01-21T00:17:53.367Z,71.00
2018-01-21T00:18:57.671Z,69.00
2018-01-21T00:20:02.025Z,68.50
2018-01-21T00:21:06.741Z,72.00
2018-01-21T00:22:11.597Z,66.00
2018-01-21T00:23:16.860Z,68.00
2018-01-21T00:24:22.404Z,79.50
2018-01-21T00:25:26.663Z,71.50
2018-01-21T00:26:30.920Z,69.00
2018-01-21T00:27:35.256Z,72.50
2018-01-21T00:28:39.570Z,89.00
2018-01-21T00:29:43.907Z,75.00
2018-01-21T00:30:48.387Z,77.50
2018-01-21T00:31:52.600Z,82.00
2018-01-21T00:32:56.811Z,67.50
2018-01-21T00:34:01.086Z,75.00
2018-01-21T00:35:05.466Z,55.50
2018-01-21T00:36:09.746Z,72.50
2018-01-21T00:37:13.987Z,62.00
2018-01-21T00:38:19.123Z,67.50
2018-01-21T00:39:24.608Z,72.00
2018-01-21T00:40:28.884Z,74.00
2018-01-21T00:41:33.212Z,76.50
2018-01-21T00:42:37.571Z,69.00
2018-01-21T00:43:41.829Z,66.50
2018-01-21T00:44:46.557Z,92.50
2018-01-21T00:45:51.046Z,90.50
2018-01-21T00:46:55.355Z,71.00
2018-01-21T00:47:59.612Z,78.00
2018-01-21T00:49:03.914Z,71.50
2018-01-21T00:50:08.223Z,75.50
2018-01-21T00:51:12.789Z,107.50
2018-01-21T00:52:17.087Z,107.50
2018-01-21T00:53:21.289Z,82.50
2018-01-21T00:54:26.135Z,68.50
2018-01-21T00:55:30.528Z,78.00
2018-01-21T00:56:34.791Z,70.00
2018-01-21T00:57:38.994Z,79.00
2018-01-21T00:58:43.227Z,71.50
2018-01-21T00:59:47.506Z,63.50
2018-01-21T01:00:52.217Z,75.00
2018-01-21T01:01:56.795Z,83.50
2018-01-21T01:03:01.042Z,76.50
2018-01-21T01:04:05.674Z,77.50
2018-01-21T01:05:10.059Z,68.00
2018-01-21T01:06:14.398Z,68.00
2018-01-21T01:07:19.483Z,49.50
2018-01-21T01:08:24.088Z,62.00
2018-01-21T01:09:28.282Z,67.50
2018-01-21T01:10:32.848Z,62.50
2018-01-21T01:11:37.115Z,63.50
2018-01-21T01:12:42.380Z,85.00
2018-01-21T01:13:46.543Z,66.00
2018-01-21T01:14:50.781Z,61.00
2018-01-21T01:15:55.678Z,80.50
2018-01-21T01:17:01.345Z,73.00
2018-01-21T01:18:05.594Z,50.00
2018-01-21T01:19:09.892Z,66.00
2018-01-21T01:20:14.190Z,63.50
2018-01-21T01:21:18.553Z,57.50
2018-01-21T01:22:22.824Z,61.00
2018-01-21T01:23:28.358Z,63.00
2018-01-21T01:24:32.707Z,53.00
2018-01-21T01:25:36.971Z,64.00
2018-01-21T01:26:41.253Z,56.00
2018-01-21T01:27:45.427Z,60.50
2018-01-21T01:28:50.034Z,49.50
2018-01-21T01:29:54.283Z,57.00
2018-01-21T01:30:58.826Z,60.50
2018-01-21T01:32:03.276Z,54.50
2018-01-21T01:33:07.562Z,42.50
2018-01-21T01:34:11.781Z,41.50
2018-01-21T01:35:16.298Z,45.50
2018-01-21T01:36:21.443Z,44.00
2018-01-21T01:37:26.292Z,46.00
2018-01-21T01:38:30.467Z,45.50
2018-01-21T01:39:34.651Z,47.50
2018-01-21T01:40:38.811Z,50.00
2018-01-21T01:41:43.318Z,60.00
2018-01-21T01:42:47.576Z,45.50
2018-01-21T01:43:51.790Z,47.00
2018-01-21T01:44:56.023Z,39.00
2018-01-21T01:46:00.302Z,52.00
2018-01-21T01:47:04.603Z,52.50
2018-01-21T01:48:08.984Z,39.00
2018-01-21T01:49:13.172Z,53.00
2018-01-21T01:50:18.393Z,40.50
2018-01-21T01:51:22.622Z,36.50
2018-01-21T01:52:27.412Z,36.50
2018-01-21T01:53:31.664Z,37.00
2018-01-21T01:54:36.160Z,35.00
2018-01-21T01:55:40.353Z,36.00
2018-01-21T01:56:44.590Z,35.50
2018-01-21T01:57:48.883Z,47.50
2018-01-21T01:58:53.066Z,34.00
2018-01-21T01:59:57.411Z,41.50
2018-01-21T02:01:02.443Z,49.00
2018-01-21T02:02:06.626Z,35.50
2018-01-21T02:03:10.867Z,49.00
2018-01-21T02:04:15.093Z,30.50
2018-01-21T02:05:19.254Z,40.00
2018-01-21T02:06:23.373Z,33.50
2018-01-21T02:07:27.841Z,39.00
2018-01-21T02:08:32.139Z,34.00
2018-01-21T02:09:36.328Z,40.00
2018-01-21T02:10:40.504Z,35.50
2018-01-21T02:11:44.730Z,36.00
2018-01-21T02:12:49.038Z,37.00
2018-01-21T02:13:53.612Z,35.50
2018-01-21T02:14:57.812Z,34.50
2018-01-21T02:16:02.444Z,42.00
2018-01-21T02:17:06.833Z,35.00
2018-01-21T02:18:11.049Z,33.50
2018-01-21T02:19:15.676Z,40.00
2018-01-21T02:20:20.163Z,32.00
2018-01-21T02:21:24.446Z,33.00
2018-01-21T02:22:28.666Z,32.00
2018-01-21T02:23:32.922Z,44.50
2018-01-21T02:24:37.238Z,36.50
2018-01-21T02:25:41.870Z,39.50
2018-01-21T02:26:46.181Z,40.00
2018-01-21T02:27:50.429Z,37.50
2018-01-21T02:28:54.735Z,34.50
2018-01-21T02:29:59.052Z,34.50
2018-01-21T02:31:03.445Z,34.00
2018-01-21T02:32:08.032Z,33.00
2018-01-21T02:33:12.265Z,41.00
2018-01-21T02:34:20.865Z,36.00
2018-01-21T02:35:25.204Z,34.50
2018-01-21T02:36:29.588Z,33.00
2018-01-21T02:37:33.905Z,33.50
2018-01-21T02:38:38.125Z,29.50
2018-01-21T02:39:42.343Z,30.00
2018-01-21T02:40:46.618Z,44.00
2018-01-21T02:41:50.975Z,33.00
2018-01-21T02:42:55.191Z,24.00
2018-01-21T02:43:59.394Z,34.50
2018-01-21T02:45:05.993Z,30.00
2018-01-21T02:46:10.325Z,35.50
2018-01-21T02:47:14.518Z,35.00
2018-01-21T02:48:19.710Z,36.50
2018-01-21T02:49:23.907Z,32.50
2018-01-21T02:50:28.501Z,42.50
2018-01-21T02:51:33.224Z,28.50
2018-01-21T02:52:37.439Z,32.00
2018-01-21T02:53:41.669Z,43.00
2018-01-21T02:54:45.895Z,37.00
2018-01-21T02:55:50.700Z,42.50
2018-01-21T02:56:55.328Z,45.50
2018-01-21T02:57:59.902Z,32.50
2018-01-21T02:59:04.135Z,35.00
2018-01-21T03:00:08.435Z,37.00
2018-01-21T03:01:12.956Z,43.00
2018-01-21T03:02:17.161Z,34.00
2018-01-21T03:03:22.176Z,29.50
2018-01-21T03:04:26.640Z,31.00
2018-01-21T03:05:30.791Z,43.50
2018-01-21T03:06:35.029Z,36.00
2018-01-21T03:07:39.256Z,37.00
2018-01-21T03:08:43.428Z,44.00
2018-01-21T03:09:47.606Z,44.50
2018-01-21T03:10:52.194Z,37.00
2018-01-21T03:11:56.564Z,40.50
2018-01-21T03:13:00.730Z,40.00
2018-01-21T03:14:04.979Z,41.00
2018-01-21T03:15:09.655Z,34.50
2018-01-21T03:16:13.907Z,42.00
2018-01-21T03:17:18.493Z,39.00
2018-01-21T03:18:23.612Z,33.50
2018-01-21T03:19:27.854Z,36.50
2018-01-21T03:20:32.002Z,34.50
2018-01-21T03:21:36.222Z,37.00
2018-01-21T03:22:40.471Z,37.50
2018-01-21T03:23:44.707Z,39.00
2018-01-21T03:24:49.006Z,35.00
2018-01-21T03:25:53.185Z,36.00
2018-01-21T03:26:57.345Z,41.00
2018-01-21T03:28:01.688Z,36.00
2018-01-21T03:29:05.954Z,38.00
2018-01-21T03:30:12.754Z,43.00
2018-01-21T03:31:17.624Z,52.00
2018-01-21T03:32:23.011Z,47.00
2018-01-21T03:33:27.302Z,42.00
2018-01-21T03:34:31.518Z,36.00
2018-01-21T03:35:35.838Z,40.00
2018-01-21T03:36:40.282Z,36.50
2018-01-21T03:37:44.430Z,39.00
2018-01-21T03:38:48.750Z,39.00
2018-01-21T03:39:53.110Z,42.00
2018-01-21T03:40:57.363Z,49.50
2018-01-21T03:42:01.638Z,34.00
2018-01-21T03:43:06.225Z,36.00
2018-01-21T03:44:10.418Z,35.00
2018-01-21T03:45:17.037Z,42.50
2018-01-21T03:46:21.220Z,36.00
2018-01-21T03:47:25.441Z,38.00
2018-01-21T03:48:29.732Z,40.50
2018-01-21T03:49:33.986Z,34.50
2018-01-21T03:50:38.122Z,46.50
2018-01-21T03:51:42.330Z,34.50
2018-01-21T03:52:46.521Z,37.00
2018-01-21T03:53:50.822Z,38.00
2018-01-21T03:54:54.994Z,35.00
2018-01-21T03:55:59.433Z,48.50
2018-01-21T03:57:03.568Z,44.00
2018-01-21T03:58:07.780Z,34.00
2018-01-21T03:59:12.058Z,47.00
2018-01-21T04:00:17.240Z,40.00
2018-01-21T04:01:21.875Z,43.00
2018-01-21T04:02:27.404Z,39.00
2018-01-21T04:03:31.638Z,34.00
2018-01-21T04:04:35.922Z,41.50
2018-01-21T04:05:40.117Z,39.50
2018-01-21T04:06:44.350Z,37.50
2018-01-21T04:07:48.593Z,43.50
2018-01-21T04:08:53.214Z,41.00
2018-01-21T04:09:57.342Z,42.00
2018-01-21T04:11:01.497Z,38.50
2018-01-21T04:12:05.646Z,36.50
2018-01-21T04:13:09.999Z,42.00
2018-01-21T04:14:14.506Z,44.00
2018-01-21T04:15:19.612Z,48.00
2018-01-21T04:16:23.773Z,38.00
2018-01-21T04:17:28.047Z,41.00
2018-01-21T04:18:32.240Z,43.00
2018-01-21T04:19:36.501Z,40.50
2018-01-21T04:22:07.319Z,39.50
2018-01-21T04:23:11.513Z,35.00
2018-01-21T04:24:15.749Z,37.00
2018-01-21T04:25:21.867Z,37.00
2018-01-21T04:26:27.813Z,35.50
2018-01-21T04:27:32.487Z,41.50
2018-01-21T04:28:37.368Z,43.50
2018-01-21T04:29:41.517Z,40.50
2018-01-21T04:30:46.245Z,45.50
2018-01-21T04:31:50.723Z,39.50
2018-01-21T04:32:55.849Z,46.50
2018-01-21T04:34:01.097Z,42.00
2018-01-21T04:35:05.308Z,30.00
2018-01-21T04:36:09.545Z,28.50
2018-01-21T04:37:13.709Z,33.00
2018-01-21T04:38:18.152Z,40.50
2018-01-21T04:39:22.943Z,33.00
2018-01-21T04:40:27.473Z,47.00
2018-01-21T04:41:31.889Z,45.00
2018-01-21T04:42:37.090Z,37.50
2018-01-21T04:43:41.286Z,38.00
2018-01-21T04:44:45.490Z,39.50
2018-01-21T04:45:50.652Z,50.50
2018-01-21T04:46:55.209Z,37.50
2018-01-21T04:47:59.320Z,37.50
2018-01-21T04:49:03.607Z,38.00
2018-01-21T04:50:09.076Z,41.50
2018-01-21T04:51:13.837Z,48.50
2018-01-21T04:52:18.984Z,38.00
2018-01-21T04:53:23.392Z,50.50
2018-01-21T04:54:28.369Z,39.50
2018-01-21T04:55:32.584Z,47.00
2018-01-21T04:56:38.435Z,43.00
2018-01-21T04:57:43.668Z,41.50
2018-01-21T04:58:47.771Z,49.00
2018-01-21T04:59:52.001Z,51.50
2018-01-21T05:00:57.996Z,47.50
2018-01-21T05:02:03.115Z,36.00
2018-01-21T05:03:07.949Z,37.00
2018-01-21T05:04:13.867Z,41.00
2018-01-21T05:05:19.680Z,43.00
2018-01-21T05:06:25.917Z,46.00
2018-01-21T05:07:30.103Z,36.50
2018-01-21T05:08:35.106Z,38.50
2018-01-21T05:09:41.835Z,41.00
2018-01-21T05:10:47.001Z,37.50
2018-01-21T05:11:52.073Z,37.00
2018-01-21T05:12:58.546Z,46.50
2018-01-21T05:14:02.807Z,47.50
2018-01-21T05:15:07.375Z,44.50
2018-01-21T05:16:12.502Z,43.50
2018-01-21T05:17:17.125Z,47.50
2018-01-21T05:18:21.786Z,46.00
2018-01-21T05:19:38.118Z,38.50
2018-01-21T05:20:43.145Z,42.50
2018-01-21T05:21:48.861Z,37.00
2018-01-21T05:22:52.959Z,38.50
2018-01-21T05:23:57.888Z,38.00
2018-01-21T05:25:03.335Z,35.00
2018-01-21T05:26:07.829Z,46.50
2018-01-21T05:27:12.030Z,34.00
2018-01-21T05:28:17.790Z,31.00
2018-01-21T05:29:26.640Z,36.00
2018-01-21T05:30:31.880Z,46.50
2018-01-21T05:31:37.431Z,39.50
2018-01-21T05:32:43.148Z,50.50
2018-01-21T05:33:48.208Z,43.00
2018-01-21T05:34:54.361Z,45.50
2018-01-21T05:35:59.338Z,42.50
2018-01-21T05:37:03.522Z,34.00
2018-01-21T05:38:08.624Z,38.00
2018-01-21T05:39:13.586Z,35.50
2018-01-21T05:40:17.792Z,44.00
2018-01-21T05:41:22.534Z,34.50
2018-01-21T05:42:28.914Z,29.50
2018-01-21T05:43:33.025Z,30.50
2018-01-21T05:44:38.052Z,32.00
2018-01-21T05:45:43.764Z,38.00
2018-01-21T05:46:48.762Z,38.00
2018-01-21T05:47:53.345Z,50.00
2018-01-21T05:48:59.167Z,40.00
2018-01-21T05:50:04.544Z,44.50
2018-01-21T05:51:09.731Z,36.00
2018-01-21T05:52:14.280Z,43.50
2018-01-21T05:53:19.705Z,41.00
2018-01-21T05:54:24.014Z,45.00
2018-01-21T05:55:28.613Z,34.50
2018-01-21T05:56:33.788Z,36.00
2018-01-21T05:57:39.765Z,40.00
2018-01-21T05:58:44.933Z,41.00
2018-01-21T05:59:50.691Z,39.00
2018-01-21T06:00:57.970Z,49.50
2018-01-21T06:02:02.684Z,38.50
2018-01-21T06:03:07.209Z,47.50
2018-01-21T06:04:12.035Z,34.00
2018-01-21T06:05:17.485Z,39.50
2018-01-21T06:06:24.862Z,39.50
2018-01-21T06:07:29.964Z,46.00
2018-01-21T06:08:34.168Z,40.50
2018-01-21T06:09:38.621Z,54.50
2018-01-21T06:10:42.864Z,43.00
2018-01-21T06:11:46.956Z,42.50
2018-01-21T06:12:51.965Z,40.00
2018-01-21T06:13:56.895Z,35.00
2018-01-21T06:15:04.707Z,39.50
2018-01-21T06:16:08.985Z,48.50
2018-01-21T06:17:14.293Z,40.50
2018-01-21T06:18:18.778Z,44.00
2018-01-21T06:20:40.796Z,33.00
2018-01-21T06:21:46.022Z,36.00
2018-01-21T06:22:51.021Z,46.50
2018-01-21T06:23:55.831Z,40.00
2018-01-21T06:25:01.517Z,45.00
2018-01-21T06:26:06.356Z,54.00
2018-01-21T06:27:11.602Z,40.50
2018-01-21T06:28:16.380Z,37.50
2018-01-21T06:29:22.530Z,43.50
2018-01-21T06:30:28.263Z,37.50
2018-01-21T06:31:32.473Z,44.00
2018-01-21T06:32:36.709Z,42.50
2018-01-21T06:33:41.188Z,49.50
2018-01-21T06:34:45.357Z,48.00
2018-01-21T06:35:50.343Z,42.00
2018-01-21T06:36:54.551Z,53.50
2018-01-21T06:37:59.738Z,40.50
2018-01-21T06:39:07.491Z,45.00
2018-01-21T06:40:12.614Z,32.00
2018-01-21T06:41:19.151Z,47.00
2018-01-21T06:42:25.095Z,36.00
2018-01-21T06:43:31.287Z,51.50
2018-01-21T06:44:37.995Z,40.50
2018-01-21T06:45:43.200Z,47.00
2018-01-21T06:46:48.163Z,40.00
2018-01-21T06:47:52.340Z,41.00
2018-01-21T06:48:57.254Z,52.00
2018-01-21T06:50:03.261Z,51.50
2018-01-21T06:51:08.755Z,37.50
2018-01-21T06:52:13.503Z,44.00
2018-01-21T06:53:17.850Z,51.50
2018-01-21T06:54:23.422Z,56.00
2018-01-21T06:55:28.459Z,44.50
2018-01-21T06:56:33.895Z,57.00
2018-01-21T06:57:40.443Z,46.50
2018-01-21T06:58:47.699Z,44.00
2018-01-21T06:59:52.485Z,47.50
2018-01-21T07:00:57.741Z,54.50
2018-01-21T07:02:03.066Z,47.00
2018-01-21T07:03:07.920Z,48.50
2018-01-21T07:04:13.522Z,44.50
2018-01-21T07:05:18.674Z,50.50
2018-01-21T07:06:24.051Z,46.00
2018-01-21T07:07:29.902Z,51.00
2018-01-21T07:08:36.061Z,51.50
2018-01-21T07:09:40.835Z,47.00
2018-01-21T07:10:45.121Z,45.50
2018-01-21T07:11:50.359Z,42.50
2018-01-21T07:12:55.482Z,48.50
2018-01-21T07:14:00.194Z,50.50
2018-01-21T07:15:07.941Z,44.50
2018-01-21T07:16:13.118Z,52.50
2018-01-21T07:17:18.810Z,45.50
2018-01-21T07:18:23.047Z,44.00
2018-01-21T07:19:29.710Z,47.00
2018-01-21T07:20:36.555Z,45.50
2018-01-21T07:21:42.263Z,53.50
2018-01-21T07:22:46.364Z,60.00
2018-01-21T07:23:51.739Z,50.00
2018-01-21T07:24:57.360Z,44.00
2018-01-21T07:26:01.538Z,44.00
2018-01-21T07:27:06.394Z,42.00
2018-01-21T07:28:10.591Z,47.50
2018-01-21T07:29:14.856Z,58.00
2018-01-21T07:30:21.083Z,54.00
2018-01-21T07:31:25.489Z,49.50
2018-01-21T07:32:31.215Z,41.50
2018-01-21T07:33:36.264Z,60.00
2018-01-21T07:34:41.720Z,54.50
2018-01-21T07:35:46.320Z,52.50
2018-01-21T07:36:51.371Z,42.50
2018-01-21T07:37:56.800Z,44.00
2018-01-21T07:39:01.663Z,48.00
2018-01-21T07:40:06.414Z,49.50
2018-01-21T07:41:11.413Z,48.00
2018-01-21T07:42:15.914Z,57.50
2018-01-21T07:43:22.881Z,55.00
2018-01-21T07:44:28.390Z,48.50
2018-01-21T07:45:33.552Z,56.50
2018-01-21T07:46:37.827Z,56.00
2018-01-21T07:47:43.838Z,39.00
2018-01-21T07:48:49.233Z,48.50
2018-01-21T07:49:54.192Z,50.00
2018-01-21T07:51:00.034Z,54.50
2018-01-21T07:52:04.890Z,55.00
2018-01-21T07:53:09.750Z,81.00
2018-01-21T07:54:14.166Z,56.00
2018-01-21T07:55:18.995Z,49.00
2018-01-21T07:56:23.820Z,64.50
2018-01-21T07:58:56.990Z,42.50
2018-01-21T08:00:02.166Z,49.00
2018-01-21T08:01:07.842Z,49.50
2018-01-21T08:02:12.053Z,49.00
2018-01-21T08:03:16.251Z,49.50
2018-01-21T08:04:21.302Z,61.00
2018-01-21T08:05:26.813Z,52.00
2018-01-21T08:06:31.037Z,52.50
2018-01-21T08:07:35.297Z,56.50
2018-01-21T08:08:39.546Z,73.50
2018-01-21T08:09:43.846Z,58.00
2018-01-21T08:10:49.372Z,63.00
2018-01-21T08:11:53.589Z,46.00
2018-01-21T08:12:59.187Z,55.50
2018-01-21T08:14:03.402Z,46.00
2018-01-21T08:15:08.352Z,44.50
2018-01-21T08:16:14.945Z,59.50
2018-01-21T08:17:19.194Z,56.00
2018-01-21T08:18:24.195Z,52.00
2018-01-21T08:19:29.181Z,49.00
2018-01-21T08:20:35.012Z,53.50
2018-01-21T08:21:41.367Z,56.50
2018-01-21T08:22:45.800Z,54.00
2018-01-21T08:23:50.850Z,48.00
2018-01-21T08:24:54.974Z,44.00
2018-01-21T08:26:00.261Z,56.00
2018-01-21T08:27:05.334Z,61.50
2018-01-21T08:28:10.197Z,61.00
2018-01-21T08:29:14.412Z,51.00
2018-01-21T08:30:20.014Z,54.50
2018-01-21T08:31:32.419Z,46.00
2018-01-21T08:33:51.793Z,42.50
2018-01-21T08:37:01.910Z,60.00
2018-01-21T08:40:13.552Z,59.00
2018-01-21T08:41:36.656Z,68.50
2018-01-21T08:42:41.350Z,47.50
2018-01-21T08:43:46.224Z,58.00
2018-01-21T08:44:50.549Z,67.00
2018-01-21T08:45:56.388Z,69.00
2018-01-21T08:47:00.615Z,53.50
2018-01-21T08:48:06.576Z,60.50
2018-01-21T08:49:11.738Z,57.50
2018-01-21T08:50:16.738Z,66.50
2018-01-21T08:51:22.477Z,69.00
2018-01-21T08:52:27.331Z,56.50
2018-01-21T08:53:32.123Z,58.50
2018-01-21T08:54:37.662Z,59.00
2018-01-21T08:55:43.340Z,47.00
2018-01-21T08:56:48.210Z,50.00
2018-01-21T08:57:52.825Z,64.00
2018-01-21T08:58:57.782Z,63.00
2018-01-21T09:00:04.426Z,68.00
2018-01-21T09:01:10.686Z,64.00
2018-01-21T09:02:16.329Z,72.00
2018-01-21T09:03:21.191Z,79.50
2018-01-21T09:04:27.224Z,59.00
2018-01-21T09:05:31.577Z,60.50
2018-01-21T09:06:35.766Z,51.50
2018-01-21T09:07:41.464Z,50.00
2018-01-21T09:08:46.369Z,50.50
2018-01-21T09:09:50.521Z,46.50
2018-01-21T09:10:54.828Z,54.00
2018-01-21T09:12:00.552Z,55.50
2018-01-21T09:13:06.481Z,43.50
2018-01-21T09:14:12.125Z,51.00
2018-01-21T09:15:17.351Z,74.50
2018-01-21T09:16:23.264Z,33.00
2018-01-21T09:17:29.156Z,44.50
2018-01-21T09:18:34.955Z,29.50
2018-01-21T09:19:40.453Z,34.00
2018-01-21T09:20:46.988Z,36.50
2018-01-21T09:21:51.595Z,54.00
2018-01-21T09:22:56.015Z,47.00
2018-01-21T09:24:00.329Z,50.00
2018-01-21T09:25:05.352Z,52.00
2018-01-21T09:26:09.770Z,51.00
2018-01-21T09:27:14.005Z,48.00
2018-01-21T09:28:19.054Z,47.50
2018-01-21T09:29:24.898Z,51.00
2018-01-21T09:30:31.041Z,67.50
2018-01-21T09:31:35.277Z,53.00
2018-01-21T09:32:41.913Z,48.50
2018-01-21T09:33:46.462Z,51.50
2018-01-21T09:34:50.810Z,48.50
2018-01-21T09:35:56.968Z,57.50
2018-01-21T09:37:01.982Z,55.00
2018-01-21T09:38:07.390Z,43.00
2018-01-21T09:39:13.935Z,46.50
2018-01-21T09:40:20.864Z,48.00
2018-01-21T09:41:26.622Z,47.50
2018-01-21T09:42:31.765Z,51.00
2018-01-21T09:43:36.614Z,47.00
2018-01-21T09:44:41.209Z,55.50
2018-01-21T09:45:46.065Z,53.00
2018-01-21T09:46:51.158Z,57.50
2018-01-21T09:47:56.334Z,53.00
2018-01-21T09:49:02.010Z,57.50
2018-01-21T09:50:07.198Z,45.00
2018-01-21T09:51:13.844Z,46.50
2018-01-21T09:52:18.466Z,46.00
2018-01-21T09:53:24.163Z,47.50
2018-01-21T09:54:28.406Z,54.00
2018-01-21T09:55:33.527Z,50.50
2018-01-21T09:56:38.770Z,50.00
2018-01-21T09:57:43.249Z,47.00
2018-01-21T09:58:49.735Z,44.50
2018-01-21T09:59:55.156Z,41.50
2018-01-21T10:00:59.470Z,45.00
2018-01-21T10:02:03.672Z,48.50
2018-01-21T10:03:08.860Z,60.00
2018-01-21T10:04:13.908Z,39.50
2018-01-21T10:05:21.344Z,39.50
2018-01-21T10:06:26.207Z,44.50
2018-01-21T10:07:31.103Z,38.00
2018-01-21T10:08:35.982Z,39.00
2018-01-21T10:09:41.150Z,38.00
2018-01-21T10:10:45.486Z,37.00
2018-01-21T10:11:51.166Z,42.00
2018-01-21T10:12:56.390Z,42.00
2018-01-21T10:14:00.647Z,41.00
2018-01-21T10:15:07.620Z,39.00
2018-01-21T10:16:12.286Z,51.00
2018-01-21T10:17:17.766Z,42.00
2018-01-21T10:18:23.250Z,44.00
2018-01-21T10:19:27.585Z,52.00
2018-01-21T10:20:32.921Z,43.50
2018-01-21T10:21:37.782Z,33.50
2018-01-21T10:22:42.742Z,36.00
2018-01-21T10:23:48.426Z,53.50
2018-01-21T10:24:55.022Z,45.00
2018-01-21T10:26:01.167Z,48.50
2018-01-21T10:27:05.737Z,39.00
2018-01-21T10:28:10.752Z,45.00
2018-01-21T10:29:15.707Z,57.50
2018-01-21T10:30:21.879Z,50.50
2018-01-21T10:31:27.434Z,41.50
2018-01-21T10:32:32.020Z,44.00
2018-01-21T10:33:37.288Z,45.00
2018-01-21T10:34:41.578Z,38.00
2018-01-21T10:35:46.696Z,40.50
2018-01-21T10:36:51.629Z,41.00
2018-01-21T10:37:57.139Z,35.50
2018-01-21T10:39:01.688Z,49.00
2018-01-21T10:40:06.420Z,38.50
2018-01-21T10:41:12.121Z,34.50
2018-01-21T10:42:17.587Z,41.00
2018-01-21T10:43:29.952Z,38.00
2018-01-21T10:44:34.336Z,48.00
2018-01-21T10:45:39.098Z,42.00
2018-01-21T10:46:44.753Z,47.00
2018-01-21T10:47:49.180Z,43.50
2018-01-21T10:48:55.071Z,37.50
2018-01-21T10:49:59.818Z,40.50
2018-01-21T10:51:05.979Z,62.00
2018-01-21T10:52:11.097Z,43.50
2018-01-21T10:53:15.781Z,56.00
2018-01-21T10:54:21.135Z,41.00
2018-01-21T10:55:26.196Z,36.50
2018-01-21T10:56:30.857Z,47.00
2018-01-21T10:57:35.402Z,40.50
2018-01-21T10:58:41.427Z,42.00
2018-01-21T10:59:46.073Z,38.00
2018-01-21T11:00:56.211Z,33.50
2018-01-21T11:02:01.264Z,47.00
2018-01-21T11:03:05.526Z,52.00
2018-01-21T11:04:11.306Z,23.00
2018-01-21T11:05:15.993Z,38.50
2018-01-21T11:06:20.657Z,53.00
2018-01-21T11:07:27.883Z,42.50
2018-01-21T11:08:36.545Z,31.50
2018-01-21T11:09:42.912Z,43.00
2018-01-21T11:10:49.950Z,41.50
2018-01-21T11:11:54.618Z,41.00
2018-01-21T11:13:04.895Z,33.00
2018-01-21T11:14:14.624Z,43.50
2018-01-21T11:15:21.185Z,53.50
2018-01-21T11:16:27.343Z,51.50
2018-01-21T11:17:32.337Z,44.50
2018-01-21T11:18:38.131Z,45.00
2018-01-21T11:19:43.022Z,41.00
2018-01-21T11:20:49.249Z,37.50
2018-01-21T11:21:54.148Z,39.00
2018-01-21T11:22:58.480Z,56.00
2018-01-21T11:24:04.000Z,42.50
2018-01-21T11:25:10.264Z,55.00
2018-01-21T11:26:16.624Z,41.00
2018-01-21T11:27:22.374Z,34.50
2018-01-21T11:28:26.834Z,50.00
2018-01-21T11:29:36.525Z,51.50
2018-01-21T11:30:42.129Z,43.50
2018-01-21T11:31:49.041Z,52.00
2018-01-21T11:32:55.645Z,44.50
2018-01-21T11:34:01.337Z,44.50
2018-01-21T11:35:08.383Z,61.50
2018-01-21T11:36:14.924Z,51.50
2018-01-21T11:37:22.229Z,63.50
2018-01-21T11:38:29.893Z,62.00
2018-01-21T11:39:35.594Z,45.50
2018-01-21T11:40:42.222Z,61.50
2018-01-21T11:41:48.609Z,54.50
2018-01-21T11:42:54.331Z,53.00
2018-01-21T11:44:02.027Z,40.00
2018-01-21T11:45:07.179Z,65.50
2018-01-21T11:46:12.585Z,34.50
2018-01-21T11:47:19.643Z,44.00
2018-01-21T11:48:27.856Z,49.00
2018-01-21T11:49:34.444Z,35.50
2018-01-21T11:50:41.806Z,40.00
2018-01-21T11:51:46.420Z,57.00
2018-01-21T11:52:52.947Z,36.50
2018-01-21T11:54:00.011Z,43.50
2018-01-21T11:55:06.767Z,55.00
2018-01-21T11:56:14.363Z,46.00
2018-01-21T11:57:22.815Z,44.50
2018-01-21T11:58:32.094Z,46.00
2018-01-21T11:59:39.288Z,55.50
2018-01-21T12:00:46.156Z,37.00
2018-01-21T12:01:55.425Z,50.50
2018-01-21T12:03:04.078Z,37.00
2018-01-21T12:04:09.353Z,43.50
2018-01-21T12:05:14.551Z,39.50
2018-01-21T12:06:21.576Z,28.00
2018-01-21T12:07:26.495Z,52.50
2018-01-21T12:08:35.154Z,36.50
2018-01-21T12:09:43.239Z,37.00
2018-01-21T12:10:50.710Z,50.50
2018-01-21T12:11:58.615Z,55.00
2018-01-21T12:13:07.391Z,57.50
2018-01-21T12:14:14.578Z,36.00
2018-01-21T12:15:21.401Z,73.00
2018-01-21T12:16:29.168Z,42.50
2018-01-21T12:17:36.573Z,65.50
2018-01-21T12:18:44.993Z,54.00
2018-01-21T12:19:52.352Z,41.50
2018-01-21T12:20:58.789Z,46.50
2018-01-21T12:22:06.472Z,50.00
2018-01-21T12:23:14.400Z,43.00
2018-01-21T12:24:22.871Z,52.00
2018-01-21T12:25:29.004Z,33.50
2018-01-21T12:26:34.938Z,40.00
2018-01-21T12:27:40.405Z,49.00
2018-01-21T12:28:46.656Z,31.50
2018-01-21T12:29:52.921Z,48.50
2018-01-21T12:30:58.648Z,46.50
2018-01-21T12:32:03.790Z,34.00
2018-01-21T12:33:09.751Z,36.00
2018-01-21T12:34:15.451Z,40.00
2018-01-21T12:35:23.738Z,38.50
2018-01-21T12:36:32.255Z,48.00
2018-01-21T12:37:37.382Z,53.00
2018-01-21T12:38:45.145Z,42.00
2018-01-21T12:39:53.109Z,40.50
2018-01-21T12:40:58.547Z,48.50
2018-01-21T12:42:03.352Z,53.50
2018-01-21T12:43:08.338Z,49.50
2018-01-21T12:44:14.417Z,50.50
2018-01-21T12:45:26.195Z,44.00
2018-01-21T12:46:33.707Z,43.50
2018-01-21T12:47:41.529Z,43.50
2018-01-21T12:48:48.946Z,37.00
2018-01-21T12:49:56.792Z,47.00
2018-01-21T12:51:03.904Z,46.00
2018-01-21T12:52:09.778Z,46.50
2018-01-21T12:53:16.298Z,52.00
2018-01-21T12:54:23.656Z,55.00
2018-01-21T12:55:30.977Z,37.50
2018-01-21T12:56:40.276Z,48.50
2018-01-21T12:57:44.877Z,46.50
2018-01-21T12:58:52.384Z,46.00
2018-01-21T13:00:01.003Z,46.50
2018-01-21T13:01:12.458Z,52.00
2018-01-21T13:02:19.327Z,54.50
2018-01-21T13:03:25.784Z,38.50
2018-01-21T13:04:41.516Z,45.50
2018-01-21T13:05:47.597Z,44.00
2018-01-21T13:06:55.375Z,29.50
2018-01-21T13:08:02.457Z,46.00
2018-01-21T13:09:07.835Z,31.50
2018-01-21T13:10:17.961Z,31.50
2018-01-21T13:11:27.385Z,40.00
2018-01-21T13:12:33.378Z,37.50
2018-01-21T13:13:38.819Z,51.50
2018-01-21T13:14:44.901Z,59.00
2018-01-21T13:15:51.829Z,37.00
2018-01-21T13:16:58.099Z,54.50
2018-01-21T13:18:03.525Z,40.00
2018-01-21T13:19:09.276Z,44.00
2018-01-21T13:20:16.233Z,50.00
2018-01-21T13:21:23.520Z,57.00
2018-01-21T13:22:32.950Z,45.00
2018-01-21T13:23:40.195Z,44.00
2018-01-21T13:24:46.685Z,42.00
2018-01-21T13:25:53.949Z,56.00
2018-01-21T13:27:00.892Z,45.50
2018-01-21T13:28:08.201Z,51.50
2018-01-21T13:29:16.336Z,49.00
2018-01-21T13:30:27.915Z,61.50
2018-01-21T13:31:35.100Z,45.50
2018-01-21T13:32:42.468Z,32.50
2018-01-21T13:33:53.692Z,50.00
2018-01-21T13:35:01.716Z,44.50
2018-01-21T13:36:08.267Z,39.00
2018-01-21T13:37:14.678Z,44.50
2018-01-21T13:38:23.183Z,44.00
2018-01-21T13:39:32.742Z,43.50
2018-01-21T13:40:41.153Z,50.00
2018-01-21T13:41:47.676Z,50.00
2018-01-21T13:42:56.993Z,54.50
2018-01-21T13:44:03.354Z,51.50
2018-01-21T13:45:16.504Z,51.00
2018-01-21T13:46:26.331Z,35.00
2018-01-21T13:47:33.137Z,44.00
2018-01-21T13:48:42.880Z,40.50
2018-01-21T13:49:50.663Z,47.50
2018-01-21T13:50:57.527Z,52.50
2018-01-21T13:52:04.459Z,46.00
2018-01-21T13:53:10.339Z,45.50
2018-01-21T13:54:16.891Z,40.00
2018-01-21T13:55:25.841Z,39.00
2018-01-21T13:56:30.882Z,34.50
2018-01-21T13:57:36.476Z,47.50
2018-01-21T13:58:42.776Z,42.00
2018-01-21T13:59:49.338Z,46.00
2018-01-21T14:00:56.011Z,38.50
2018-01-21T14:02:06.076Z,50.50
2018-01-21T14:03:12.883Z,35.00
2018-01-21T14:05:35.688Z,51.50
2018-01-21T14:06:47.260Z,37.00
2018-01-21T14:07:55.813Z,41.50
2018-01-21T14:09:02.855Z,56.00
2018-01-21T14:10:09.124Z,49.00
2018-01-21T14:11:15.305Z,42.00
2018-01-21T14:12:24.800Z,48.00
2018-01-21T14:13:31.884Z,43.00